JST889 YSSY-YMML
Flight info
| Callsign | JST889 |
|---|---|
| Flight time | 1h 5m |
| Altitude | 31000 |
| Route | WOL DCT CB DCT BOYSE |
| Aircraft | A20N/M-SDE2E3FGHIJ1RWXY/LB1 |
Departure
| Time | 2026-04-25 10:05 |
|---|---|
| Airport | Sydney Kingsford Smith International Airport (YSSY) |
Arrival
| Time | 2026-04-25 11:11 |
|---|---|
| Airport | Melbourne Airport (YMML) |
| Time | Latitude | Longitude | Altitude | Speed | Heading |
|---|---|---|---|---|---|
| 2026-04-25 09:25 | -33.93563 | 151.17759 | 30 ft | 0 kts | 281° |
| 2026-04-25 09:49 | -33.93567 | 151.17785 | 30 ft | 4 kts | 278° |
| 2026-04-25 09:50 | -33.93570 | 151.17811 | 30 ft | 4 kts | 257° |
| 2026-04-25 09:50 | -33.93556 | 151.17830 | 30 ft | 4 kts | 193° |
| 2026-04-25 09:50 | -33.93531 | 151.17836 | 30 ft | 4 kts | 190° |
| 2026-04-25 09:50 | -33.93515 | 151.17840 | 30 ft | 0 kts | 190° |
| 2026-04-25 09:53 | -33.93516 | 151.17840 | 30 ft | 1 kts | 190° |
| 2026-04-25 09:54 | -33.93533 | 151.17836 | 30 ft | 4 kts | 190° |
| 2026-04-25 09:54 | -33.93575 | 151.17827 | 30 ft | 8 kts | 190° |
| 2026-04-25 09:54 | -33.93639 | 151.17813 | 30 ft | 11 kts | 190° |
| 2026-04-25 09:54 | -33.93726 | 151.17793 | 30 ft | 14 kts | 191° |
| 2026-04-25 09:55 | -33.93836 | 151.17774 | 29 ft | 17 kts | 181° |
| 2026-04-25 09:55 | -33.93964 | 151.17798 | 29 ft | 20 kts | 165° |
| 2026-04-25 09:55 | -33.94107 | 151.17842 | 29 ft | 22 kts | 166° |
| 2026-04-25 09:55 | -33.94264 | 151.17882 | 30 ft | 24 kts | 168° |
| 2026-04-25 09:56 | -33.94432 | 151.17918 | 29 ft | 24 kts | 188° |
| 2026-04-25 09:56 | -33.94576 | 151.17896 | 29 ft | 22 kts | 166° |
| 2026-04-25 09:56 | -33.94728 | 151.17943 | 30 ft | 23 kts | 167° |
| 2026-04-25 09:56 | -33.94893 | 151.17986 | 30 ft | 25 kts | 168° |
| 2026-04-25 09:57 | -33.95071 | 151.18033 | 30 ft | 27 kts | 163° |
| 2026-04-25 09:57 | -33.95098 | 151.18083 | 30 ft | 9 kts | 98° |
| 2026-04-25 09:57 | -33.95084 | 151.18192 | 30 ft | 16 kts | 78° |
| 2026-04-25 09:57 | -33.95058 | 151.18339 | 30 ft | 19 kts | 77° |
| 2026-04-25 09:58 | -33.95042 | 151.18424 | 30 ft | 0 kts | 77° |
| 2026-04-25 09:58 | -33.95042 | 151.18425 | 30 ft | 0 kts | 77° |
| 2026-04-25 09:58 | -33.95041 | 151.18427 | 30 ft | 0 kts | 77° |
| 2026-04-25 09:58 | -33.95040 | 151.18432 | 30 ft | 2 kts | 77° |
| 2026-04-25 09:59 | -33.95039 | 151.18460 | 30 ft | 5 kts | 99° |
| 2026-04-25 09:59 | -33.95063 | 151.18500 | 30 ft | 7 kts | 150° |
| 2026-04-25 09:59 | -33.95114 | 151.18542 | 30 ft | 11 kts | 140° |
| 2026-04-25 09:59 | -33.95192 | 151.18627 | 30 ft | 18 kts | 137° |
| 2026-04-25 10:00 | -33.95304 | 151.18715 | 29 ft | 21 kts | 160° |
| 2026-04-25 10:00 | -33.95453 | 151.18757 | 29 ft | 23 kts | 168° |
| 2026-04-25 10:00 | -33.95615 | 151.18801 | 29 ft | 25 kts | 166° |
| 2026-04-25 10:00 | -33.95790 | 151.18847 | 30 ft | 27 kts | 169° |
| 2026-04-25 10:01 | -33.95976 | 151.18892 | 30 ft | 28 kts | 168° |
| 2026-04-25 10:01 | -33.96162 | 151.18938 | 30 ft | 25 kts | 168° |
| 2026-04-25 10:01 | -33.96338 | 151.18984 | 30 ft | 27 kts | 167° |
| 2026-04-25 10:01 | -33.96527 | 151.19034 | 29 ft | 29 kts | 167° |
| 2026-04-25 10:02 | -33.96728 | 151.19073 | 29 ft | 30 kts | 189° |
| 2026-04-25 10:02 | -33.96922 | 151.19100 | 30 ft | 27 kts | 167° |
| 2026-04-25 10:02 | -33.97026 | 151.19128 | 30 ft | 14 kts | 167° |
| 2026-04-25 10:02 | -33.97118 | 151.19173 | 30 ft | 12 kts | 112° |
| 2026-04-25 10:03 | -33.97110 | 151.19261 | 28 ft | 0 kts | 80° |
| 2026-04-25 10:03 | -33.97110 | 151.19264 | 28 ft | 0 kts | 80° |
| 2026-04-25 10:04 | -33.97106 | 151.19292 | 27 ft | 10 kts | 80° |
| 2026-04-25 10:04 | -33.97054 | 151.19368 | 26 ft | 13 kts | 13° |
| 2026-04-25 10:04 | -33.97033 | 151.19366 | 26 ft | 0 kts | 352° |
| 2026-04-25 10:04 | -33.96870 | 151.19324 | 25 ft | 60 kts | 347° |
| 2026-04-25 10:05 | -33.96247 | 151.19162 | 26 ft | 120 kts | 348° |
| 2026-04-25 10:05 | -33.95293 | 151.18913 | 209 ft | 150 kts | 349° |
| 2026-04-25 10:05 | -33.94181 | 151.18724 | 533 ft | 173 kts | 6° |
| 2026-04-25 10:05 | -33.92958 | 151.19190 | 818 ft | 198 kts | 34° |
| 2026-04-25 10:06 | -33.92034 | 151.20375 | 1572 ft | 200 kts | 59° |
| 2026-04-25 10:06 | -33.91686 | 151.22053 | 2123 ft | 219 kts | 85° |
| 2026-04-25 10:06 | -33.91760 | 151.23992 | 2588 ft | 244 kts | 93° |
| 2026-04-25 10:06 | -33.91955 | 151.26085 | 3358 ft | 255 kts | 94° |
| 2026-04-25 10:07 | -33.92147 | 151.28247 | 4219 ft | 263 kts | 94° |
| 2026-04-25 10:07 | -33.92302 | 151.30421 | 5190 ft | 267 kts | 94° |
| 2026-04-25 10:07 | -33.92429 | 151.32659 | 6192 ft | 266 kts | 94° |
| 2026-04-25 10:07 | -33.92540 | 151.34886 | 7209 ft | 267 kts | 93° |
| 2026-04-25 10:08 | -33.92646 | 151.37127 | 8128 ft | 271 kts | 93° |
| 2026-04-25 10:08 | -33.92758 | 151.39411 | 9035 ft | 273 kts | 96° |
| 2026-04-25 10:08 | -33.93337 | 151.41580 | 9931 ft | 276 kts | 122° |
| 2026-04-25 10:08 | -33.94675 | 151.43259 | 10654 ft | 288 kts | 145° |
| 2026-04-25 10:09 | -33.96600 | 151.44208 | 10950 ft | 315 kts | 169° |
| 2026-04-25 10:09 | -33.98859 | 151.44149 | 11275 ft | 337 kts | 192° |
| 2026-04-25 10:09 | -34.01008 | 151.42960 | 12011 ft | 346 kts | 215° |
| 2026-04-25 10:09 | -34.02692 | 151.40871 | 12827 ft | 352 kts | 232° |
| 2026-04-25 10:10 | -34.04095 | 151.38426 | 13645 ft | 356 kts | 233° |
| 2026-04-25 10:10 | -34.05566 | 151.36065 | 14422 ft | 359 kts | 228° |
| 2026-04-25 10:10 | -34.07222 | 151.33796 | 15081 ft | 363 kts | 225° |
| 2026-04-25 10:10 | -34.09008 | 151.31623 | 15736 ft | 367 kts | 222° |
| 2026-04-25 10:11 | -34.10874 | 151.29494 | 16446 ft | 370 kts | 221° |
| 2026-04-25 10:11 | -34.12778 | 151.27377 | 17115 ft | 375 kts | 221° |
| 2026-04-25 10:11 | -34.14709 | 151.25242 | 17786 ft | 379 kts | 221° |
| 2026-04-25 10:11 | -34.16663 | 151.23077 | 18422 ft | 384 kts | 221° |
| 2026-04-25 10:12 | -34.18634 | 151.20883 | 19031 ft | 388 kts | 221° |
| 2026-04-25 10:12 | -34.20620 | 151.18659 | 19609 ft | 390 kts | 221° |
| 2026-04-25 10:12 | -34.24610 | 151.14193 | 20790 ft | 396 kts | 221° |
| 2026-04-25 10:13 | -34.26645 | 151.11912 | 21343 ft | 400 kts | 221° |
| 2026-04-25 10:13 | -34.28695 | 151.09618 | 21924 ft | 404 kts | 220° |
| 2026-04-25 10:13 | -34.30763 | 151.07303 | 22512 ft | 406 kts | 220° |
| 2026-04-25 10:13 | -34.32847 | 151.04967 | 23031 ft | 411 kts | 220° |
| 2026-04-25 10:14 | -34.34949 | 151.02611 | 23618 ft | 413 kts | 221° |
| 2026-04-25 10:14 | -34.37061 | 151.00238 | 24132 ft | 416 kts | 221° |
| 2026-04-25 10:14 | -34.39186 | 150.97847 | 24647 ft | 417 kts | 221° |
| 2026-04-25 10:14 | -34.41312 | 150.95452 | 25137 ft | 419 kts | 221° |
| 2026-04-25 10:15 | -34.43452 | 150.93041 | 25614 ft | 421 kts | 221° |
| 2026-04-25 10:15 | -34.45598 | 150.90622 | 26080 ft | 423 kts | 221° |
| 2026-04-25 10:15 | -34.47727 | 150.88220 | 26537 ft | 424 kts | 221° |
| 2026-04-25 10:15 | -34.49893 | 150.85776 | 26988 ft | 426 kts | 221° |
| 2026-04-25 10:16 | -34.52061 | 150.83326 | 27484 ft | 426 kts | 221° |
| 2026-04-25 10:16 | -34.54239 | 150.80861 | 27861 ft | 430 kts | 222° |
| 2026-04-25 10:16 | -34.56286 | 150.78209 | 28289 ft | 433 kts | 229° |
| 2026-04-25 10:16 | -34.58104 | 150.75283 | 28684 ft | 435 kts | 232° |
| 2026-04-25 10:17 | -34.59890 | 150.72306 | 29070 ft | 437 kts | 232° |
| 2026-04-25 10:17 | -34.61692 | 150.69322 | 29436 ft | 439 kts | 232° |
| 2026-04-25 10:17 | -34.63502 | 150.66326 | 29778 ft | 441 kts | 232° |
| 2026-04-25 10:17 | -34.65318 | 150.63316 | 30144 ft | 443 kts | 232° |
| 2026-04-25 10:18 | -34.67141 | 150.60287 | 30483 ft | 445 kts | 232° |
| 2026-04-25 10:18 | -34.68946 | 150.57286 | 30770 ft | 447 kts | 232° |
| 2026-04-25 10:18 | -34.70783 | 150.54227 | 31072 ft | 449 kts | 232° |
| 2026-04-25 10:18 | -34.72626 | 150.51156 | 31384 ft | 451 kts | 232° |
| 2026-04-25 10:19 | -34.74473 | 150.48074 | 31731 ft | 451 kts | 232° |
| 2026-04-25 10:19 | -34.76319 | 150.44992 | 32114 ft | 450 kts | 232° |
| 2026-04-25 10:19 | -34.78160 | 150.41915 | 32237 ft | 448 kts | 232° |
| 2026-04-25 10:20 | -34.81816 | 150.35798 | 32365 ft | 447 kts | 232° |
| 2026-04-25 10:20 | -34.85468 | 150.29679 | 32368 ft | 447 kts | 232° |
| 2026-04-25 10:21 | -34.89093 | 150.23593 | 32368 ft | 447 kts | 232° |
| 2026-04-25 10:21 | -34.92738 | 150.17461 | 32368 ft | 447 kts | 233° |
| 2026-04-25 10:22 | -34.96376 | 150.11333 | 32369 ft | 446 kts | 233° |
| 2026-04-25 10:22 | -35.00008 | 150.05205 | 32370 ft | 446 kts | 233° |
| 2026-04-25 10:23 | -35.03635 | 149.99072 | 32370 ft | 446 kts | 233° |
| 2026-04-25 10:23 | -35.07192 | 149.93048 | 32368 ft | 446 kts | 233° |
| 2026-04-25 10:24 | -35.10788 | 149.86944 | 32375 ft | 445 kts | 233° |
| 2026-04-25 10:24 | -35.14404 | 149.80801 | 32372 ft | 446 kts | 233° |
| 2026-04-25 10:25 | -35.18018 | 149.74650 | 32374 ft | 446 kts | 233° |
| 2026-04-25 10:25 | -35.21630 | 149.68488 | 32375 ft | 446 kts | 233° |
| 2026-04-25 10:26 | -35.25238 | 149.62323 | 32376 ft | 446 kts | 233° |
| 2026-04-25 10:26 | -35.28820 | 149.56193 | 32383 ft | 446 kts | 234° |
| 2026-04-25 10:27 | -35.32424 | 149.50015 | 32389 ft | 446 kts | 234° |
| 2026-04-25 10:27 | -35.36026 | 149.43827 | 32394 ft | 446 kts | 234° |
| 2026-04-25 10:28 | -35.39627 | 149.37631 | 32396 ft | 446 kts | 234° |
| 2026-04-25 10:28 | -35.43224 | 149.31431 | 32397 ft | 446 kts | 234° |
| 2026-04-25 10:29 | -35.46796 | 149.25263 | 32398 ft | 447 kts | 234° |
| 2026-04-25 10:29 | -35.50389 | 149.19048 | 32399 ft | 447 kts | 234° |
| 2026-04-25 10:30 | -35.53980 | 149.12825 | 32401 ft | 447 kts | 234° |
| 2026-04-25 10:30 | -35.57566 | 149.06599 | 32401 ft | 447 kts | 234° |
| 2026-04-25 10:31 | -35.61152 | 149.00364 | 32405 ft | 447 kts | 234° |
| 2026-04-25 10:31 | -35.64709 | 148.94167 | 32404 ft | 446 kts | 234° |
| 2026-04-25 10:32 | -35.68285 | 148.87924 | 32412 ft | 446 kts | 234° |
| 2026-04-25 10:32 | -35.71857 | 148.81680 | 32410 ft | 446 kts | 235° |
| 2026-04-25 10:33 | -35.75429 | 148.75423 | 32408 ft | 446 kts | 235° |
| 2026-04-25 10:33 | -35.78969 | 148.69210 | 32411 ft | 446 kts | 235° |
| 2026-04-25 10:34 | -35.82530 | 148.62950 | 32413 ft | 446 kts | 235° |
| 2026-04-25 10:34 | -35.86087 | 148.56687 | 32404 ft | 446 kts | 235° |
| 2026-04-25 10:35 | -35.89638 | 148.50420 | 32404 ft | 446 kts | 235° |
| 2026-04-25 10:35 | -35.93151 | 148.44182 | 32403 ft | 446 kts | 236° |
| 2026-04-25 10:36 | -35.96685 | 148.37896 | 32405 ft | 446 kts | 236° |
| 2026-04-25 10:36 | -36.00214 | 148.31610 | 32394 ft | 446 kts | 236° |
| 2026-04-25 10:37 | -36.03743 | 148.25315 | 32387 ft | 445 kts | 236° |
| 2026-04-25 10:37 | -36.07266 | 148.19017 | 32389 ft | 446 kts | 236° |
| 2026-04-25 10:38 | -36.10766 | 148.12750 | 32390 ft | 446 kts | 236° |
| 2026-04-25 10:38 | -36.14289 | 148.06441 | 32391 ft | 446 kts | 236° |
| 2026-04-25 10:39 | -36.17819 | 148.00129 | 32388 ft | 446 kts | 236° |
| 2026-04-25 10:39 | -36.21344 | 147.93813 | 32388 ft | 446 kts | 236° |
| 2026-04-25 10:40 | -36.24842 | 147.87532 | 32385 ft | 446 kts | 236° |
| 2026-04-25 10:40 | -36.28357 | 147.81208 | 32372 ft | 446 kts | 236° |
| 2026-04-25 10:41 | -36.31873 | 147.74868 | 32372 ft | 446 kts | 236° |
| 2026-04-25 10:41 | -36.35384 | 147.68521 | 32372 ft | 447 kts | 236° |
| 2026-04-25 10:42 | -36.38868 | 147.62200 | 32379 ft | 447 kts | 237° |
| 2026-04-25 10:42 | -36.42376 | 147.55825 | 32383 ft | 447 kts | 237° |
| 2026-04-25 10:43 | -36.45885 | 147.49438 | 32390 ft | 448 kts | 237° |
| 2026-04-25 10:43 | -36.49392 | 147.43040 | 32372 ft | 448 kts | 237° |
| 2026-04-25 10:43 | -36.51145 | 147.39839 | 32165 ft | 447 kts | 237° |
| 2026-04-25 10:44 | -36.52869 | 147.36687 | 31906 ft | 447 kts | 237° |
| 2026-04-25 10:44 | -36.54621 | 147.33482 | 31670 ft | 448 kts | 237° |
| 2026-04-25 10:44 | -36.56374 | 147.30272 | 31425 ft | 449 kts | 237° |
| 2026-04-25 10:44 | -36.58130 | 147.27052 | 31180 ft | 450 kts | 237° |
| 2026-04-25 10:45 | -36.59883 | 147.23834 | 30942 ft | 449 kts | 237° |
| 2026-04-25 10:45 | -36.61631 | 147.20624 | 30704 ft | 447 kts | 237° |
| 2026-04-25 10:45 | -36.63372 | 147.17425 | 30465 ft | 445 kts | 237° |
| 2026-04-25 10:45 | -36.65108 | 147.14230 | 30189 ft | 444 kts | 237° |
| 2026-04-25 10:46 | -36.66832 | 147.11054 | 29910 ft | 442 kts | 237° |
| 2026-04-25 10:46 | -36.68528 | 147.07928 | 29641 ft | 440 kts | 237° |
| 2026-04-25 10:46 | -36.70231 | 147.04770 | 29368 ft | 438 kts | 239° |
| 2026-04-25 10:46 | -36.71749 | 147.01490 | 29097 ft | 436 kts | 243° |
| 2026-04-25 10:47 | -36.73205 | 146.98180 | 28834 ft | 434 kts | 242° |
| 2026-04-25 10:47 | -36.74664 | 146.94895 | 28560 ft | 433 kts | 242° |
| 2026-04-25 10:47 | -36.76118 | 146.91620 | 28295 ft | 431 kts | 242° |
| 2026-04-25 10:47 | -36.77566 | 146.88355 | 28036 ft | 429 kts | 242° |
| 2026-04-25 10:48 | -36.79005 | 146.85103 | 27775 ft | 427 kts | 242° |
| 2026-04-25 10:48 | -36.80437 | 146.81863 | 27519 ft | 425 kts | 243° |
| 2026-04-25 10:48 | -36.81841 | 146.78681 | 27273 ft | 424 kts | 243° |
| 2026-04-25 10:48 | -36.83256 | 146.75468 | 27022 ft | 422 kts | 243° |
| 2026-04-25 10:49 | -36.84669 | 146.72258 | 26765 ft | 420 kts | 243° |
| 2026-04-25 10:49 | -36.85600 | 146.70143 | 26604 ft | 420 kts | 243° |
| 2026-04-25 10:49 | -36.87471 | 146.65883 | 26277 ft | 417 kts | 243° |
| 2026-04-25 10:49 | -36.88862 | 146.62713 | 26024 ft | 416 kts | 243° |
| 2026-04-25 10:50 | -36.90249 | 146.59550 | 25785 ft | 414 kts | 243° |
| 2026-04-25 10:50 | -36.91596 | 146.56476 | 25556 ft | 413 kts | 243° |
| 2026-04-25 10:50 | -36.92860 | 146.53589 | 25338 ft | 411 kts | 243° |
| 2026-04-25 10:50 | -36.94228 | 146.50460 | 25093 ft | 410 kts | 243° |
| 2026-04-25 10:51 | -36.95592 | 146.47337 | 24862 ft | 408 kts | 243° |
| 2026-04-25 10:51 | -36.96950 | 146.44226 | 24644 ft | 407 kts | 243° |
| 2026-04-25 10:51 | -36.98303 | 146.41122 | 24411 ft | 406 kts | 243° |
| 2026-04-25 10:51 | -36.99649 | 146.38032 | 24181 ft | 404 kts | 243° |
| 2026-04-25 10:52 | -37.00993 | 146.34946 | 23949 ft | 403 kts | 243° |
| 2026-04-25 10:52 | -37.02328 | 146.31875 | 23685 ft | 401 kts | 243° |
| 2026-04-25 10:52 | -37.03659 | 146.28812 | 23412 ft | 399 kts | 243° |
| 2026-04-25 10:52 | -37.04980 | 146.25769 | 23141 ft | 397 kts | 243° |
| 2026-04-25 10:53 | -37.06276 | 146.22778 | 22766 ft | 397 kts | 243° |
| 2026-04-25 10:53 | -37.07591 | 146.19743 | 22242 ft | 396 kts | 243° |
| 2026-04-25 10:53 | -37.08893 | 146.16732 | 21711 ft | 392 kts | 243° |
| 2026-04-25 10:53 | -37.10184 | 146.13749 | 21193 ft | 387 kts | 243° |
| 2026-04-25 10:54 | -37.11459 | 146.10797 | 20673 ft | 383 kts | 243° |
| 2026-04-25 10:54 | -37.12296 | 146.08857 | 20322 ft | 381 kts | 243° |
| 2026-04-25 10:54 | -37.13966 | 146.04983 | 19640 ft | 376 kts | 243° |
| 2026-04-25 10:54 | -37.15189 | 146.02146 | 19097 ft | 374 kts | 243° |
| 2026-04-25 10:55 | -37.16420 | 145.99287 | 18609 ft | 371 kts | 243° |
| 2026-04-25 10:55 | -37.17637 | 145.96457 | 18080 ft | 367 kts | 243° |
| 2026-04-25 10:55 | -37.18842 | 145.93653 | 17581 ft | 363 kts | 244° |
| 2026-04-25 10:55 | -37.20036 | 145.90873 | 17079 ft | 360 kts | 244° |
| 2026-04-25 10:56 | -37.21216 | 145.88122 | 16600 ft | 357 kts | 244° |
| 2026-04-25 10:56 | -37.22384 | 145.85396 | 16102 ft | 354 kts | 244° |
| 2026-04-25 10:56 | -37.23544 | 145.82687 | 15620 ft | 351 kts | 244° |
| 2026-04-25 10:56 | -37.24679 | 145.80034 | 15144 ft | 349 kts | 244° |
| 2026-04-25 10:57 | -37.25821 | 145.77363 | 14656 ft | 347 kts | 244° |
| 2026-04-25 10:57 | -37.26961 | 145.74695 | 14179 ft | 345 kts | 245° |
| 2026-04-25 10:57 | -37.28092 | 145.72045 | 13677 ft | 343 kts | 245° |
| 2026-04-25 10:57 | -37.29213 | 145.69417 | 13204 ft | 339 kts | 245° |
| 2026-04-25 10:58 | -37.30351 | 145.66839 | 12738 ft | 337 kts | 241° |
| 2026-04-25 10:58 | -37.31704 | 145.64438 | 12273 ft | 335 kts | 237° |
| 2026-04-25 10:58 | -37.33066 | 145.62104 | 11824 ft | 333 kts | 237° |
| 2026-04-25 10:58 | -37.34436 | 145.59743 | 11356 ft | 331 kts | 237° |
| 2026-04-25 10:59 | -37.35769 | 145.57440 | 10822 ft | 330 kts | 237° |
| 2026-04-25 10:59 | -37.37125 | 145.55090 | 10322 ft | 330 kts | 238° |
| 2026-04-25 10:59 | -37.38448 | 145.52805 | 10190 ft | 317 kts | 238° |
| 2026-04-25 10:59 | -37.39716 | 145.50614 | 10080 ft | 303 kts | 238° |
| 2026-04-25 11:00 | -37.40931 | 145.48510 | 9883 ft | 292 kts | 238° |
| 2026-04-25 11:00 | -37.42112 | 145.46459 | 9573 ft | 286 kts | 238° |
| 2026-04-25 11:00 | -37.43267 | 145.44447 | 9249 ft | 282 kts | 238° |
| 2026-04-25 11:00 | -37.44402 | 145.42472 | 9137 ft | 282 kts | 239° |
| 2026-04-25 11:01 | -37.45563 | 145.40442 | 9038 ft | 286 kts | 238° |
| 2026-04-25 11:01 | -37.46693 | 145.38476 | 8935 ft | 274 kts | 238° |
| 2026-04-25 11:01 | -37.47793 | 145.36576 | 8606 ft | 265 kts | 239° |
| 2026-04-25 11:01 | -37.48867 | 145.34706 | 8088 ft | 263 kts | 239° |
| 2026-04-25 11:02 | -37.49935 | 145.32838 | 7549 ft | 262 kts | 239° |
| 2026-04-25 11:02 | -37.50991 | 145.30988 | 7149 ft | 256 kts | 239° |
| 2026-04-25 11:02 | -37.52019 | 145.29190 | 6719 ft | 252 kts | 239° |
| 2026-04-25 11:02 | -37.53041 | 145.27411 | 6300 ft | 246 kts | 239° |
| 2026-04-25 11:03 | -37.54051 | 145.25649 | 5979 ft | 251 kts | 239° |
| 2026-04-25 11:03 | -37.55071 | 145.23853 | 5643 ft | 252 kts | 239° |
| 2026-04-25 11:03 | -37.56071 | 145.22099 | 5405 ft | 244 kts | 239° |
| 2026-04-25 11:03 | -37.57041 | 145.20403 | 5222 ft | 235 kts | 240° |
| 2026-04-25 11:04 | -37.57995 | 145.18730 | 4925 ft | 235 kts | 240° |
| 2026-04-25 11:04 | -37.58945 | 145.17060 | 4621 ft | 235 kts | 240° |
| 2026-04-25 11:04 | -37.59885 | 145.15414 | 4426 ft | 224 kts | 240° |
| 2026-04-25 11:04 | -37.60477 | 145.14382 | 4326 ft | 215 kts | 240° |
| 2026-04-25 11:05 | -37.61621 | 145.12380 | 4003 ft | 209 kts | 241° |
| 2026-04-25 11:05 | -37.62468 | 145.10885 | 3720 ft | 210 kts | 241° |
| 2026-04-25 11:05 | -37.63316 | 145.09394 | 3452 ft | 209 kts | 241° |
| 2026-04-25 11:05 | -37.64146 | 145.07935 | 3214 ft | 207 kts | 241° |
| 2026-04-25 11:06 | -37.64987 | 145.06459 | 2931 ft | 207 kts | 241° |
| 2026-04-25 11:06 | -37.65819 | 145.05000 | 2793 ft | 196 kts | 241° |
| 2026-04-25 11:06 | -37.66563 | 145.03667 | 2673 ft | 174 kts | 248° |
| 2026-04-25 11:06 | -37.66986 | 145.02368 | 2595 ft | 152 kts | 266° |
| 2026-04-25 11:07 | -37.67113 | 145.01121 | 2532 ft | 137 kts | 278° |
| 2026-04-25 11:07 | -37.67097 | 144.99921 | 2482 ft | 138 kts | 283° |
| 2026-04-25 11:07 | -37.67031 | 144.98720 | 2423 ft | 136 kts | 283° |
| 2026-04-25 11:07 | -37.66964 | 144.97537 | 2350 ft | 135 kts | 284° |
| 2026-04-25 11:08 | -37.66895 | 144.96354 | 2203 ft | 135 kts | 284° |
| 2026-04-25 11:08 | -37.66826 | 144.95171 | 2039 ft | 136 kts | 284° |
| 2026-04-25 11:08 | -37.66759 | 144.93993 | 1867 ft | 137 kts | 282° |
| 2026-04-25 11:08 | -37.66688 | 144.92795 | 1701 ft | 137 kts | 282° |
| 2026-04-25 11:09 | -37.66619 | 144.91604 | 1504 ft | 134 kts | 281° |
| 2026-04-25 11:09 | -37.66557 | 144.90415 | 1343 ft | 138 kts | 279° |
| 2026-04-25 11:09 | -37.66497 | 144.89212 | 1125 ft | 137 kts | 277° |
| 2026-04-25 11:09 | -37.66443 | 144.88010 | 954 ft | 139 kts | 277° |
| 2026-04-25 11:10 | -37.66375 | 144.86816 | 697 ft | 135 kts | 277° |
| 2026-04-25 11:10 | -37.66347 | 144.86430 | 637 ft | 136 kts | 277° |
| 2026-04-25 11:10 | -37.66214 | 144.84449 | 362 ft | 130 kts | 278° |
| 2026-04-25 11:10 | -37.66150 | 144.83580 | 401 ft | 58 kts | 275° |
| 2026-04-25 11:11 | -37.66130 | 144.83197 | 408 ft | 41 kts | 266° |
| 2026-04-25 11:11 | -37.66163 | 144.82973 | 412 ft | 31 kts | 254° |
| 2026-04-25 11:11 | -37.66204 | 144.82845 | 412 ft | 0 kts | 245° |
| 2026-04-25 11:15 | -37.66206 | 144.82839 | 434 ft | 3 kts | 245° |
| 2026-04-25 11:15 | -37.66226 | 144.82786 | 416 ft | 11 kts | 244° |
| 2026-04-25 11:15 | -37.66281 | 144.82700 | 408 ft | 14 kts | 211° |
| 2026-04-25 11:15 | -37.66385 | 144.82701 | 410 ft | 17 kts | 140° |
| 2026-04-25 11:16 | -37.66465 | 144.83045 | 405 ft | 25 kts | 92° |
| 2026-04-25 11:16 | -37.66474 | 144.83285 | 397 ft | 29 kts | 98° |
| 2026-04-25 11:16 | -37.66490 | 144.83554 | 393 ft | 27 kts | 93° |
| 2026-04-25 11:17 | -37.66499 | 144.83750 | 392 ft | 22 kts | 92° |
| 2026-04-25 11:17 | -37.66509 | 144.83958 | 384 ft | 26 kts | 95° |
| 2026-04-25 11:17 | -37.66580 | 144.84150 | 375 ft | 24 kts | 156° |
| 2026-04-25 11:17 | -37.66754 | 144.84183 | 375 ft | 27 kts | 173° |
| 2026-04-25 11:18 | -37.66836 | 144.84199 | 374 ft | 0 kts | 169° |
| 2026-04-25 11:19 | -37.66898 | 144.84214 | 373 ft | 15 kts | 169° |
| 2026-04-25 11:20 | -37.67016 | 144.84239 | 371 ft | 19 kts | 171° |
| 2026-04-25 11:20 | -37.67148 | 144.84261 | 373 ft | 2 kts | 172° |
| 2026-04-25 11:21 | -37.67181 | 144.84277 | 367 ft | 13 kts | 150° |
| 2026-04-25 11:21 | -37.67196 | 144.84399 | 368 ft | 16 kts | 83° |
| 2026-04-25 11:22 | -37.67140 | 144.84457 | 367 ft | 0 kts | 355° |
| 2026-04-25 11:23 | -37.67128 | 144.84456 | 365 ft | 6 kts | 355° |
| 2026-04-25 11:24 | -37.67066 | 144.84447 | 366 ft | 11 kts | 354° |
| 2026-04-25 11:24 | -37.66998 | 144.84488 | 364 ft | 12 kts | 23° |
| 2026-04-25 11:24 | -37.66968 | 144.84499 | 363 ft | 4 kts | 14° |
| 2026-04-25 11:24 | -37.66930 | 144.84509 | 361 ft | 6 kts | 11° |
| 2026-04-25 11:25 | -37.66907 | 144.84515 | 361 ft | 0 kts | 11° |